Airlie, Virginia
Current Conditions -  °F | °C
As of 1:15 PM on Thursday 29 Jan 2015 (Local Time) from KHWY Reporting Station
Scattered Clouds Scattered Clouds  
Wind Chill: 34°   Ceiling: Unl
Heat Index: 40°   Visibility: 10mi
Dew Point: 19°   Wind: 8mph
Humidity: 43%   Direction: 170°S
Pressure: 30.14"   Gusts: NA
Location:  38.6876°N, 77.819°W
Report Text: KHWY 291815Z AUTO 17007KT 10SM SCT120 04/M07 A3014 RMK AO2 T00431074
Loading
Personal Weather Stations






























Interactive Weather Map New forecast layout! Learn more

10-Day Weather Forecast

Advertisements
Track Severe Weather on mobile